LFLC 171800Z AUTO 29004KT CAVOK 05/M02 Q1016 NOSIG

ElémentsDécodage
LFLC Station météo située sur l'aérodrome de CLERMONT-FERRAND Auvergne
171800Z émis le 17 du mois à 18h00 UTC
AUTO Bulletin édité par un automate
29004KT vent du 290°, 04 noeuds
CAVOK Ceiling And Visibility OK
- Visibilité de 10 Km ou plus
- Pas de nuage au-dessous de 1500m ou au-dessous de l'altitude minimale du secteur la plus élevée (si>1500m) et absence de CB
- pas de temps présent significatif
05/M02 température 05°C, point de rosée -02°C
 soit une humidité relative de 61%
Q1016 la pression au niveau de la mer (QNH) est de 1016 hPa
NOSIG Pas de changement significatif prévu au cours des deux heures suivant l'heure de l'observation